sensor_id;sensor_type;location;lat;lon;timestamp;pressure;altitude;pressure_sealevel;temperature;humidity
45523;BME280;31254;51.680;5.394;2023-02-28T00:01:31;103174.53;;;-0.43;69.47
45523;BME280;31254;51.680;5.394;2023-02-28T00:04:01;103163.94;;;-0.53;69.43
45523;BME280;31254;51.680;5.394;2023-02-28T00:06:28;103167.50;;;-0.50;69.92
45523;BME280;31254;51.680;5.394;2023-02-28T00:08:55;103189.72;;;-0.42;69.59
45523;BME280;31254;51.680;5.394;2023-02-28T00:11:24;103151.53;;;-0.61;69.57
45523;BME280;31254;51.680;5.394;2023-02-28T00:13:51;103166.66;;;-0.55;69.61
45523;BME280;31254;51.680;5.394;2023-02-28T00:16:20;103182.59;;;-0.44;70.12
45523;BME280;31254;51.680;5.394;2023-02-28T00:18:47;103188.00;;;-0.47;69.79
45523;BME280;31254;51.680;5.394;2023-02-28T00:21:15;103172.06;;;-0.58;70.11
45523;BME280;31254;51.680;5.394;2023-02-28T00:23:42;103173.81;;;-0.56;70.55
45523;BME280;31254;51.680;5.394;2023-02-28T00:26:12;103183.56;;;-0.48;70.30
45523;BME280;31254;51.680;5.394;2023-02-28T00:28:39;103176.41;;;-0.49;70.12
45523;BME280;31254;51.680;5.394;2023-02-28T00:31:05;103185.38;;;-0.52;70.50
45523;BME280;31254;51.680;5.394;2023-02-28T00:33:34;103156.09;;;-0.67;70.34
45523;BME280;31254;51.680;5.394;2023-02-28T00:36:06;103187.19;;;-0.54;70.56
45523;BME280;31254;51.680;5.394;2023-02-28T00:38:36;103164.19;;;-0.72;70.98
45523;BME280;31254;51.680;5.394;2023-02-28T00:41:03;103116.28;;;-0.95;70.28
45523;BME280;31254;51.680;5.394;2023-02-28T00:43:37;103185.47;;;-0.57;71.23
45523;BME280;31254;51.680;5.394;2023-02-28T00:46:04;103161.59;;;-0.78;70.40
45523;BME280;31254;51.680;5.394;2023-02-28T00:48:32;103130.47;;;-0.87;70.50
45523;BME280;31254;51.680;5.394;2023-02-28T00:50:58;103166.75;;;-0.61;70.87
45523;BME280;31254;51.680;5.394;2023-02-28T00:53:25;103168.53;;;-0.63;70.23
45523;BME280;31254;51.680;5.394;2023-02-28T00:55:54;103177.31;;;-0.52;70.82
45523;BME280;31254;51.680;5.394;2023-02-28T00:58:23;103170.28;;;-0.58;71.05
45523;BME280;31254;51.680;5.394;2023-02-28T01:00:51;103182.72;;;-0.53;71.14
45523;BME280;31254;51.680;5.394;2023-02-28T01:03:19;103167.66;;;-0.62;71.00
45523;BME280;31254;51.680;5.394;2023-02-28T01:05:50;103181.88;;;-0.59;71.21
45523;BME280;31254;51.680;5.394;2023-02-28T01:08:17;103183.75;;;-0.64;71.36
45523;BME280;31254;51.680;5.394;2023-02-28T01:10:43;103189.09;;;-0.62;71.24
45523;BME280;31254;51.680;5.394;2023-02-28T01:13:11;103154.47;;;-0.78;71.46
45523;BME280;31254;51.680;5.394;2023-02-28T01:15:41;103158.00;;;-0.76;71.78
45523;BME280;31254;51.680;5.394;2023-02-28T01:18:09;103149.22;;;-0.87;71.60
45523;BME280;31254;51.680;5.394;2023-02-28T01:20:37;103179.44;;;-0.74;71.96
45523;BME280;31254;51.680;5.394;2023-02-28T01:23:03;103179.47;;;-0.77;72.17
45523;BME280;31254;51.680;5.394;2023-02-28T01:25:30;103192.06;;;-0.84;71.88
45523;BME280;31254;51.680;5.394;2023-02-28T01:27:59;103199.97;;;-0.75;72.46
45523;BME280;31254;51.680;5.394;2023-02-28T01:30:26;103166.19;;;-0.88;71.97
45523;BME280;31254;51.680;5.394;2023-02-28T01:32:52;103197.25;;;-0.71;71.80
45523;BME280;31254;51.680;5.394;2023-02-28T01:35:20;103193.69;;;-0.70;72.27
45523;BME280;31254;51.680;5.394;2023-02-28T01:37:46;103161.69;;;-0.86;72.14
45523;BME280;31254;51.680;5.394;2023-02-28T01:40:14;103189.13;;;-0.64;72.03
45523;BME280;31254;51.680;5.394;2023-02-28T01:42:41;103087.19;;;-1.26;72.04
45523;BME280;31254;51.680;5.394;2023-02-28T01:45:26;103188.13;;;-0.55;72.17
45523;BME280;31254;51.680;5.394;2023-02-28T01:48:05;103191.63;;;-0.50;71.56
45523;BME280;31254;51.680;5.394;2023-02-28T01:50:40;103158.69;;;-0.60;71.90
45523;BME280;31254;51.680;5.394;2023-02-28T01:53:15;103180.81;;;-0.44;72.10
45523;BME280;31254;51.680;5.394;2023-02-28T01:55:47;103174.47;;;-0.40;72.21
45523;BME280;31254;51.680;5.394;2023-02-28T01:58:15;103143.31;;;-0.47;71.86
45523;BME280;31254;51.680;5.394;2023-02-28T02:00:42;103174.34;;;-0.30;71.57
45523;BME280;31254;51.680;5.394;2023-02-28T02:03:13;103149.44;;;-0.39;71.86
45523;BME280;31254;51.680;5.394;2023-02-28T02:05:42;103144.06;;;-0.37;71.96
45523;BME280;31254;51.680;5.394;2023-02-28T02:08:17;103168.81;;;-0.21;72.12
45523;BME280;31254;51.680;5.394;2023-02-28T02:11:00;103165.16;;;-0.14;71.87
45523;BME280;31254;51.680;5.394;2023-02-28T02:36:26;103125.81;;;-0.16;70.82
45523;BME280;31254;51.680;5.394;2023-02-28T02:39:51;103154.13;;;0.03;70.85
45523;BME280;31254;51.680;5.394;2023-02-28T02:42:00;103133.72;;;-0.06;70.92
45523;BME280;31254;51.680;5.394;2023-02-28T02:44:40;103167.41;;;0.12;71.10
45523;BME280;31254;51.680;5.394;2023-02-28T02:47:14;103162.06;;;0.11;71.19
45523;BME280;31254;51.680;5.394;2023-02-28T02:49:51;103168.25;;;0.16;71.44
45523;BME280;31254;51.680;5.394;2023-02-28T02:52:22;103100.00;;;-0.22;71.44
45523;BME280;31254;51.680;5.394;2023-02-28T02:54:54;103152.28;;;0.08;71.43
45523;BME280;31254;51.680;5.394;2023-02-28T02:57:27;103138.94;;;0.04;71.38
45523;BME280;31254;51.680;5.394;2023-02-28T02:59:58;103091.97;;;-0.24;70.99
45523;BME280;31254;51.680;5.394;2023-02-28T03:02:31;103161.91;;;0.20;71.59
45523;BME280;31254;51.680;5.394;2023-02-28T03:05:04;103147.69;;;0.15;71.27
45523;BME280;31254;51.680;5.394;2023-02-28T03:07:33;103136.91;;;0.18;71.79
45523;BME280;31254;51.680;5.394;2023-02-28T03:09:59;103164.44;;;0.31;71.48
45523;BME280;31254;51.680;5.394;2023-02-28T03:12:40;103138.69;;;0.17;71.34
45523;BME280;31254;51.680;5.394;2023-02-28T03:15:24;103151.78;;;0.38;70.94
45523;BME280;31254;51.680;5.394;2023-02-28T03:28:51;103154.06;;;0.59;70.80
45523;BME280;31254;51.680;5.394;2023-02-28T03:31:27;103154.00;;;0.62;70.67
45523;BME280;31254;51.680;5.394;2023-02-28T03:34:13;103140.66;;;0.56;70.90
45523;BME280;31254;51.680;5.394;2023-02-28T03:36:50;103161.06;;;0.66;70.68
45523;BME280;31254;51.680;5.394;2023-02-28T03:39:53;103166.41;;;0.68;70.83
45523;BME280;31254;51.680;5.394;2023-02-28T03:42:28;103156.53;;;0.70;70.52
45523;BME280;31254;51.680;5.394;2023-02-28T03:45:18;103134.31;;;0.62;70.44
45523;BME280;31254;51.680;5.394;2023-02-28T03:47:51;103173.38;;;0.80;70.36
45523;BME280;31254;51.680;5.394;2023-02-28T03:50:24;103166.22;;;0.79;70.60
45523;BME280;31254;51.680;5.394;2023-02-28T03:52:58;103164.31;;;0.84;70.39
45523;BME280;31254;51.680;5.394;2023-02-28T03:55:33;103137.72;;;0.70;70.30
45523;BME280;31254;51.680;5.394;2023-02-28T03:58:09;103165.19;;;0.86;70.18
45523;BME280;31254;51.680;5.394;2023-02-28T04:00:44;103163.47;;;0.82;70.50
45523;BME280;31254;51.680;5.394;2023-02-28T04:03:13;103136.81;;;0.69;70.82
45523;BME280;31254;51.680;5.394;2023-02-28T04:05:52;103159.81;;;0.86;70.89
45523;BME280;31254;51.680;5.394;2023-02-28T04:08:22;103156.19;;;0.87;70.90
45523;BME280;31254;51.680;5.394;2023-02-28T04:11:00;103156.19;;;0.87;70.66
45523;BME280;31254;51.680;5.394;2023-02-28T04:13:27;103137.56;;;0.78;70.98
45523;BME280;31254;51.680;5.394;2023-02-28T04:15:56;103135.78;;;0.78;71.17
45523;BME280;31254;51.680;5.394;2023-02-28T04:18:23;103120.69;;;0.69;70.71
45523;BME280;31254;51.680;5.394;2023-02-28T04:20:52;103130.41;;;0.78;70.91
45523;BME280;31254;51.680;5.394;2023-02-28T04:23:19;103158.81;;;0.90;70.74
45523;BME280;31254;51.680;5.394;2023-02-28T04:25:45;103133.16;;;0.75;71.03
45523;BME280;31254;51.680;5.394;2023-02-28T04:28:14;103166.84;;;0.91;71.27
45523;BME280;31254;51.680;5.394;2023-02-28T04:30:43;103153.56;;;0.84;71.07
45523;BME280;31254;51.680;5.394;2023-02-28T04:33:12;103175.75;;;0.94;71.16
45523;BME280;31254;51.680;5.394;2023-02-28T04:35:39;103164.13;;;0.93;71.00
45523;BME280;31254;51.680;5.394;2023-02-28T04:38:05;103170.34;;;0.95;71.05
45523;BME280;31254;51.680;5.394;2023-02-28T04:40:32;103165.00;;;0.95;71.08
45523;BME280;31254;51.680;5.394;2023-02-28T04:43:01;103141.13;;;0.80;70.94
45523;BME280;31254;51.680;5.394;2023-02-28T04:45:30;103137.50;;;0.81;70.93
45523;BME280;31254;51.680;5.394;2023-02-28T04:48:00;103147.22;;;0.88;71.19
45523;BME280;31254;51.680;5.394;2023-02-28T04:50:26;103172.09;;;0.99;70.55
45523;BME280;31254;51.680;5.394;2023-02-28T04:52:53;103158.75;;;0.93;70.74
45523;BME280;31254;51.680;5.394;2023-02-28T04:55:20;103173.78;;;1.03;70.85
45523;BME280;31254;51.680;5.394;2023-02-28T04:57:50;103183.63;;;1.04;71.11
45523;BME280;31254;51.680;5.394;2023-02-28T05:00:17;103171.09;;;1.03;70.70
45523;BME280;31254;51.680;5.394;2023-02-28T05:02:43;103143.69;;;0.86;70.91
45523;BME280;31254;51.680;5.394;2023-02-28T05:05:10;103181.72;;;1.09;71.08
45523;BME280;31254;51.680;5.394;2023-02-28T05:07:38;103182.56;;;1.12;70.43
45523;BME280;31254;51.680;5.394;2023-02-28T05:10:05;103160.41;;;0.99;70.92
45523;BME280;31254;51.680;5.394;2023-02-28T05:12:31;103190.56;;;1.15;70.83
45523;BME280;31254;51.680;5.394;2023-02-28T05:14:58;103187.88;;;1.15;70.70
45523;BME280;31254;51.680;5.394;2023-02-28T05:17:27;103123.38;;;0.69;70.47
45523;BME280;31254;51.680;5.394;2023-02-28T05:19:58;103187.84;;;1.16;70.69
45523;BME280;31254;51.680;5.394;2023-02-28T05:22:41;103161.34;;;0.99;71.05
45523;BME280;31254;51.680;5.394;2023-02-28T05:25:16;103195.84;;;1.19;70.46
45523;BME280;31254;51.680;5.394;2023-02-28T05:27:44;103155.84;;;1.05;70.21
45523;BME280;31254;51.680;5.394;2023-02-28T05:30:11;103170.00;;;1.14;70.56
45523;BME280;31254;51.680;5.394;2023-02-28T05:32:41;103179.69;;;1.21;70.16
45523;BME280;31254;51.680;5.394;2023-02-28T05:35:11;103147.06;;;0.96;70.46
45523;BME280;31254;51.680;5.394;2023-02-28T05:37:38;103187.88;;;1.15;70.51
45523;BME280;31254;51.680;5.394;2023-02-28T05:40:06;103180.72;;;1.15;70.94
45523;BME280;31254;51.680;5.394;2023-02-28T05:42:36;103190.44;;;1.21;70.40
45523;BME280;31254;51.680;5.394;2023-02-28T05:45:04;103153.13;;;1.07;70.33
45523;BME280;31254;51.680;5.394;2023-02-28T05:47:34;103180.53;;;1.23;70.79
45523;BME280;31254;51.680;5.394;2023-02-28T05:50:01;103160.16;;;1.13;70.65
45523;BME280;31254;51.680;5.394;2023-02-28T05:52:30;103186.78;;;1.25;70.82
45523;BME280;31254;51.680;5.394;2023-02-28T05:54:57;103175.19;;;1.21;70.92
45523;BME280;31254;51.680;5.394;2023-02-28T05:57:24;103158.38;;;1.12;70.51
45523;BME280;31254;51.680;5.394;2023-02-28T05:59:51;103164.63;;;1.14;71.19
45523;BME280;31254;51.680;5.394;2023-02-28T06:02:17;103123.94;;;0.87;70.82
45523;BME280;31254;51.680;5.394;2023-02-28T06:04:45;103163.75;;;1.12;70.67
45523;BME280;31254;51.680;5.394;2023-02-28T06:07:12;103175.22;;;1.20;70.81
45523;BME280;31254;51.680;5.394;2023-02-28T06:09:41;103183.22;;;1.23;71.02
45523;BME280;31254;51.680;5.394;2023-02-28T06:12:07;103176.84;;;1.28;70.49
45523;BME280;31254;51.680;5.394;2023-02-28T06:14:36;103168.94;;;1.21;70.56
45523;BME280;31254;51.680;5.394;2023-02-28T06:17:03;103189.47;;;1.25;70.54
45523;BME280;31254;51.680;5.394;2023-02-28T06:19:34;103184.03;;;1.28;71.32
45523;BME280;31254;51.680;5.394;2023-02-28T06:22:01;103188.66;;;1.20;70.91
45523;BME280;31254;51.680;5.394;2023-02-28T06:24:30;103192.97;;;1.30;70.60
45523;BME280;31254;51.680;5.394;2023-02-28T06:26:57;103152.19;;;1.08;70.99
45523;BME280;31254;51.680;5.394;2023-02-28T06:29:37;103195.59;;;1.33;71.16
45523;BME280;31254;51.680;5.394;2023-02-28T06:32:08;103197.31;;;1.36;71.04
45523;BME280;31254;51.680;5.394;2023-02-28T06:34:36;103183.84;;;1.36;70.65
45523;BME280;31254;51.680;5.394;2023-02-28T06:37:13;103192.88;;;1.35;71.01
45523;BME280;31254;51.680;5.394;2023-02-28T06:39:42;103192.03;;;1.31;71.03
45523;BME280;31254;51.680;5.394;2023-02-28T06:42:09;103191.06;;;1.35;71.14
45523;BME280;31254;51.680;5.394;2023-02-28T06:44:36;103199.00;;;1.41;71.13
45523;BME280;31254;51.680;5.394;2023-02-28T06:47:05;103204.31;;;1.44;71.29
45523;BME280;31254;51.680;5.394;2023-02-28T06:49:34;103194.50;;;1.42;71.18
45523;BME280;31254;51.680;5.394;2023-02-28T06:52:01;103205.06;;;1.51;71.50
45523;BME280;31254;51.680;5.394;2023-02-28T06:54:29;103211.44;;;1.45;71.16
45523;BME280;31254;51.680;5.394;2023-02-28T06:56:57;103220.16;;;1.57;70.84
45523;BME280;31254;51.680;5.394;2023-02-28T06:59:24;103206.69;;;1.58;71.27
45523;BME280;31254;51.680;5.394;2023-02-28T07:01:52;103208.31;;;1.66;71.25
45523;BME280;31254;51.680;5.394;2023-02-28T07:04:20;103209.34;;;1.60;70.79
45523;BME280;31254;51.680;5.394;2023-02-28T07:06:48;103220.84;;;1.67;71.16
45523;BME280;31254;51.680;5.394;2023-02-28T07:09:17;103223.38;;;1.74;70.82
45523;BME280;31254;51.680;5.394;2023-02-28T07:11:45;103224.00;;;1.86;70.75
45523;BME280;31254;51.680;5.394;2023-02-28T07:14:12;103214.16;;;1.85;70.49
45523;BME280;31254;51.680;5.394;2023-02-28T07:16:41;103229.97;;;2.00;70.24
45523;BME280;31254;51.680;5.394;2023-02-28T07:19:08;103217.91;;;2.16;69.45
45523;BME280;31254;51.680;5.394;2023-02-28T07:21:34;103210.88;;;2.11;69.28
45523;BME280;31254;51.680;5.394;2023-02-28T07:24:03;103206.97;;;2.23;68.77
45523;BME280;31254;51.680;5.394;2023-02-28T07:26:30;103219.81;;;2.47;68.72
45523;BME280;31254;51.680;5.394;2023-02-28T07:29:03;103229.16;;;2.68;67.83
45523;BME280;31254;51.680;5.394;2023-02-28T07:31:48;103229.50;;;2.89;67.68
45523;BME280;31254;51.680;5.394;2023-02-28T07:34:24;103230.13;;;2.99;67.02
45523;BME280;31254;51.680;5.394;2023-02-28T07:37:01;103231.50;;;3.14;66.81
45523;BME280;31254;51.680;5.394;2023-02-28T07:39:31;103223.47;;;3.12;65.80
45523;BME280;31254;51.680;5.394;2023-02-28T07:41:58;103224.28;;;3.14;66.62
45523;BME280;31254;51.680;5.394;2023-02-28T07:44:26;103234.91;;;3.20;66.56
45523;BME280;31254;51.680;5.394;2023-02-28T07:46:55;103237.63;;;3.20;65.97
45523;BME280;31254;51.680;5.394;2023-02-28T07:49:23;103239.09;;;3.32;66.10
45523;BME280;31254;51.680;5.394;2023-02-28T07:51:50;103250.81;;;3.31;66.01
45523;BME280;31254;51.680;5.394;2023-02-28T07:54:20;103240.97;;;3.28;65.04
45523;BME280;31254;51.680;5.394;2023-02-28T07:56:47;103225.91;;;3.21;64.88
45523;BME280;31254;51.680;5.394;2023-02-28T07:59:13;103256.16;;;3.33;64.13
45523;BME280;31254;51.680;5.394;2023-02-28T08:01:41;103235.50;;;3.32;63.71
45523;BME280;31254;51.680;5.394;2023-02-28T08:04:18;103253.03;;;3.46;63.21
45523;BME280;31254;51.680;5.394;2023-02-28T08:06:46;103243.06;;;3.50;63.44
45523;BME280;31254;51.680;5.394;2023-02-28T08:09:14;103243.19;;;3.45;63.57
45523;BME280;31254;51.680;5.394;2023-02-28T08:11:44;103244.75;;;3.23;64.00
45523;BME280;31254;51.680;5.394;2023-02-28T08:14:11;103229.66;;;3.16;63.37
45523;BME280;31254;51.680;5.394;2023-02-28T08:16:38;103228.44;;;3.27;62.80
45523;BME280;31254;51.680;5.394;2023-02-28T08:19:05;103242.63;;;3.64;62.92
45523;BME280;31254;51.680;5.394;2023-02-28T08:21:32;103236.09;;;3.73;62.47
45523;BME280;31254;51.680;5.394;2023-02-28T08:24:05;103250.50;;;3.72;62.01
45523;BME280;31254;51.680;5.394;2023-02-28T08:26:33;103250.31;;;3.78;61.78
45523;BME280;31254;51.680;5.394;2023-02-28T08:29:01;103221.53;;;3.77;60.56
45523;BME280;31254;51.680;5.394;2023-02-28T08:31:32;103245.03;;;4.03;61.02
45523;BME280;31254;51.680;5.394;2023-02-28T08:33:59;103233.38;;;4.01;60.35
45523;BME280;31254;51.680;5.394;2023-02-28T08:36:26;103211.63;;;4.06;59.89
45523;BME280;31254;51.680;5.394;2023-02-28T08:38:56;103206.75;;;3.89;60.63
45523;BME280;31254;51.680;5.394;2023-02-28T08:41:23;103236.38;;;3.92;60.46
45523;BME280;31254;51.680;5.394;2023-02-28T08:43:50;103229.81;;;3.71;61.11
45523;BME280;31254;51.680;5.394;2023-02-28T08:46:20;103241.94;;;3.57;60.96
45523;BME280;31254;51.680;5.394;2023-02-28T08:48:47;103229.66;;;3.47;60.99
45523;BME280;31254;51.680;5.394;2023-02-28T08:51:15;103237.38;;;3.59;60.40
45523;BME280;31254;51.680;5.394;2023-02-28T08:54:07;103246.81;;;3.44;61.26
45523;BME280;31254;51.680;5.394;2023-02-28T08:56:35;103251.47;;;3.39;61.73
45523;BME280;31254;51.680;5.394;2023-02-28T08:59:06;103242.53;;;3.37;60.72
45523;BME280;31254;51.680;5.394;2023-02-28T09:01:39;103241.69;;;3.35;61.76
45523;BME280;31254;51.680;5.394;2023-02-28T09:04:14;103247.81;;;3.42;59.62
45523;BME280;31254;51.680;5.394;2023-02-28T09:06:49;103243.38;;;3.39;60.17
45523;BME280;31254;51.680;5.394;2023-02-28T09:09:17;103250.63;;;3.37;59.40
45523;BME280;31254;51.680;5.394;2023-02-28T09:11:48;103236.31;;;3.93;57.34
45523;BME280;31254;51.680;5.394;2023-02-28T09:14:15;103244.22;;;5.31;55.06
45523;BME280;31254;51.680;5.394;2023-02-28T09:16:46;103247.13;;;5.98;51.88
45523;BME280;31254;51.680;5.394;2023-02-28T09:19:14;103243.78;;;6.35;50.85
45523;BME280;31254;51.680;5.394;2023-02-28T09:21:41;103231.47;;;6.49;50.50
45523;BME280;31254;51.680;5.394;2023-02-28T09:24:11;103244.66;;;6.36;50.57
45523;BME280;31254;51.680;5.394;2023-02-28T09:26:41;103239.53;;;6.50;50.51
45523;BME280;31254;51.680;5.394;2023-02-28T09:29:16;103248.53;;;6.73;49.09
45523;BME280;31254;51.680;5.394;2023-02-28T09:31:43;103244.38;;;6.64;49.79
45523;BME280;31254;51.680;5.394;2023-02-28T09:34:13;103232.78;;;6.81;49.85
45523;BME280;31254;51.680;5.394;2023-02-28T09:36:40;103219.88;;;6.86;49.92
45523;BME280;31254;51.680;5.394;2023-02-28T09:39:11;103235.47;;;7.22;49.70
45523;BME280;31254;51.680;5.394;2023-02-28T09:41:44;103254.50;;;7.02;49.67
45523;BME280;31254;51.680;5.394;2023-02-28T09:46:54;103233.25;;;6.70;49.46
45523;BME280;31254;51.680;5.394;2023-02-28T09:49:33;103242.88;;;6.57;49.48
45523;BME280;31254;51.680;5.394;2023-02-28T09:52:03;103238.97;;;6.42;49.28
45523;BME280;31254;51.680;5.394;2023-02-28T09:54:32;103183.91;;;5.96;49.64
45523;BME280;31254;51.680;5.394;2023-02-28T09:57:07;103240.38;;;6.30;49.60
45523;BME280;31254;51.680;5.394;2023-02-28T10:00:02;103238.53;;;6.31;49.86
45523;BME280;31254;51.680;5.394;2023-02-28T10:05:20;103227.63;;;6.32;50.06
45523;BME280;31254;51.680;5.394;2023-02-28T10:10:26;103204.03;;;5.90;48.86
45523;BME280;31254;51.680;5.394;2023-02-28T10:12:57;103226.81;;;5.84;49.07
45523;BME280;31254;51.680;5.394;2023-02-28T10:15:29;103236.91;;;5.81;49.75
45523;BME280;31254;51.680;5.394;2023-02-28T10:18:03;103214.06;;;5.88;49.46
45523;BME280;31254;51.680;5.394;2023-02-28T10:20:39;103225.03;;;6.07;48.65
45523;BME280;31254;51.680;5.394;2023-02-28T10:25:38;103209.63;;;5.85;48.72
45523;BME280;31254;51.680;5.394;2023-02-28T10:28:13;103228.84;;;6.03;48.02
45523;BME280;31254;51.680;5.394;2023-02-28T10:30:43;103216.97;;;6.06;49.03
45523;BME280;31254;51.680;5.394;2023-02-28T10:35:45;103223.91;;;6.35;48.84
45523;BME280;31254;51.680;5.394;2023-02-28T10:38:29;103213.59;;;6.22;49.57
45523;BME280;31254;51.680;5.394;2023-02-28T10:41:06;103215.97;;;6.08;48.97
45523;BME280;31254;51.680;5.394;2023-02-28T10:43:34;103214.47;;;6.23;49.28
45523;BME280;31254;51.680;5.394;2023-02-28T10:49:03;103199.50;;;6.35;49.15
45523;BME280;31254;51.680;5.394;2023-02-28T10:51:40;103190.97;;;6.44;48.75
45523;BME280;31254;51.680;5.394;2023-02-28T10:54:19;103215.25;;;6.47;48.05
45523;BME280;31254;51.680;5.394;2023-02-28T10:59:43;103190.28;;;6.39;47.33
45523;BME280;31254;51.680;5.394;2023-02-28T11:04:55;103194.78;;;6.61;47.79
45523;BME280;31254;51.680;5.394;2023-02-28T11:07:23;103165.78;;;6.63;47.51
45523;BME280;31254;51.680;5.394;2023-02-28T11:09:57;103108.25;;;6.13;46.98
45523;BME280;31254;51.680;5.394;2023-02-28T11:12:37;103192.44;;;6.53;47.54
45523;BME280;31254;51.680;5.394;2023-02-28T11:15:28;103191.13;;;6.62;47.55
45523;BME280;31254;51.680;5.394;2023-02-28T11:18:02;103166.72;;;6.62;47.36
45523;BME280;31254;51.680;5.394;2023-02-28T11:20:37;103182.25;;;6.78;47.45
45523;BME280;31254;51.680;5.394;2023-02-28T11:23:05;103191.00;;;6.65;46.83
45523;BME280;31254;51.680;5.394;2023-02-28T11:25:38;103183.59;;;6.68;46.53
45523;BME280;31254;51.680;5.394;2023-02-28T11:28:22;103175.53;;;6.67;46.18
45523;BME280;31254;51.680;5.394;2023-02-28T11:39:10;103148.22;;;6.71;45.71
45523;BME280;31254;51.680;5.394;2023-02-28T11:47:19;103177.91;;;6.95;45.52
45523;BME280;31254;51.680;5.394;2023-02-28T11:52:57;103166.16;;;6.94;45.10
45523;BME280;31254;51.680;5.394;2023-02-28T11:55:49;103174.16;;;6.98;45.28
45523;BME280;31254;51.680;5.394;2023-02-28T12:11:54;103157.06;;;6.95;45.18
45523;BME280;31254;51.680;5.394;2023-02-28T12:28:10;103135.41;;;7.14;43.30
45523;BME280;31254;51.680;5.394;2023-02-28T12:30:53;103148.00;;;7.16;43.36
45523;BME280;31254;51.680;5.394;2023-02-28T12:33:28;103132.91;;;7.10;43.48
45523;BME280;31254;51.680;5.394;2023-02-28T12:36:05;103137.44;;;7.28;43.35
45523;BME280;31254;51.680;5.394;2023-02-28T12:38:56;103132.53;;;7.37;43.84
45523;BME280;31254;51.680;5.394;2023-02-28T12:41:33;103128.56;;;7.25;43.09
45523;BME280;31254;51.680;5.394;2023-02-28T12:44:08;103120.63;;;7.20;42.89
45523;BME280;31254;51.680;5.394;2023-02-28T12:46:54;103130.69;;;7.18;43.37
45523;BME280;31254;51.680;5.394;2023-02-28T12:49:37;103104.19;;;7.23;43.19
45523;BME280;31254;51.680;5.394;2023-02-28T12:52:13;103122.50;;;7.39;43.04
45523;BME280;31254;51.680;5.394;2023-02-28T12:55:03;103098.06;;;7.39;43.13
45523;BME280;31254;51.680;5.394;2023-02-28T13:00:14;103103.41;;;7.21;43.03
45523;BME280;31254;51.680;5.394;2023-02-28T13:11:38;103057.19;;;7.04;43.36
45523;BME280;31254;51.680;5.394;2023-02-28T13:14:23;103090.34;;;7.29;43.91
45523;BME280;31254;51.680;5.394;2023-02-28T13:16:58;103085.13;;;7.25;42.82
45523;BME280;31254;51.680;5.394;2023-02-28T13:19:37;103084.25;;;7.24;42.83
45523;BME280;31254;51.680;5.394;2023-02-28T13:22:41;103079.84;;;7.22;42.95
45523;BME280;31254;51.680;5.394;2023-02-28T13:27:55;103080.06;;;7.17;42.40
45523;BME280;31254;51.680;5.394;2023-02-28T13:36:28;103051.53;;;6.89;42.75
45523;BME280;31254;51.680;5.394;2023-02-28T13:38:58;103076.31;;;7.01;42.98
45523;BME280;31254;51.680;5.394;2023-02-28T13:46:35;103071.75;;;7.01;43.03
45523;BME280;31254;51.680;5.394;2023-02-28T13:51:49;103076.97;;;6.87;43.11
45523;BME280;31254;51.680;5.394;2023-02-28T14:05:39;103063.38;;;6.68;43.07
45523;BME280;31254;51.680;5.394;2023-02-28T14:08:15;103059.03;;;6.64;42.92
45523;BME280;31254;51.680;5.394;2023-02-28T14:10:47;103051.88;;;6.63;43.44
45523;BME280;31254;51.680;5.394;2023-02-28T14:13:38;103057.28;;;6.63;43.17
45523;BME280;31254;51.680;5.394;2023-02-28T14:16:14;103053.16;;;6.54;43.05
45523;BME280;31254;51.680;5.394;2023-02-28T14:24:47;103051.34;;;6.54;42.93
45523;BME280;31254;51.680;5.394;2023-02-28T14:27:37;103041.56;;;6.50;43.08
45523;BME280;31254;51.680;5.394;2023-02-28T14:38:52;103046.06;;;6.51;42.51
45523;BME280;31254;51.680;5.394;2023-02-28T14:41:33;103044.13;;;6.53;43.01
45523;BME280;31254;51.680;5.394;2023-02-28T14:44:21;103050.38;;;6.55;42.57
45523;BME280;31254;51.680;5.394;2023-02-28T14:46:59;103019.34;;;6.42;42.55
45523;BME280;31254;51.680;5.394;2023-02-28T14:49:42;103052.22;;;6.55;43.13
45523;BME280;31254;51.680;5.394;2023-02-28T14:52:31;103049.84;;;6.47;42.84
45523;BME280;31254;51.680;5.394;2023-02-28T14:55:02;103048.97;;;6.47;42.51
45523;BME280;31254;51.680;5.394;2023-02-28T14:57:39;103045.22;;;6.49;42.62
45523;BME280;31254;51.680;5.394;2023-02-28T15:00:23;103046.31;;;6.45;42.26
45523;BME280;31254;51.680;5.394;2023-02-28T15:02:52;103046.31;;;6.45;42.43
45523;BME280;31254;51.680;5.394;2023-02-28T15:05:37;103045.66;;;6.40;42.76
45523;BME280;31254;51.680;5.394;2023-02-28T15:08:17;103045.78;;;6.37;42.57
45523;BME280;31254;51.680;5.394;2023-02-28T15:10:54;103048.56;;;6.35;42.79
45523;BME280;31254;51.680;5.394;2023-02-28T15:13:43;103042.34;;;6.33;42.54
45523;BME280;31254;51.680;5.394;2023-02-28T15:19:16;103047.91;;;6.30;42.42
45523;BME280;31254;51.680;5.394;2023-02-28T15:22:03;103041.66;;;6.28;42.53
45523;BME280;31254;51.680;5.394;2023-02-28T15:27:09;103031.16;;;6.20;42.56
45523;BME280;31254;51.680;5.394;2023-02-28T15:29:44;103033.03;;;6.18;41.95
45523;BME280;31254;51.680;5.394;2023-02-28T15:32:32;103056.09;;;6.29;42.81
45523;BME280;31254;51.680;5.394;2023-02-28T15:35:40;103055.41;;;6.23;42.96
45523;BME280;31254;51.680;5.394;2023-02-28T15:38:26;103053.66;;;6.22;43.09
45523;BME280;31254;51.680;5.394;2023-02-28T15:40:58;103029.31;;;6.00;43.20
45523;BME280;31254;51.680;5.394;2023-02-28T15:43:33;103044.97;;;6.14;43.21
45523;BME280;31254;51.680;5.394;2023-02-28T15:48:34;103048.91;;;6.07;42.82
45523;BME280;31254;51.680;5.394;2023-02-28T15:53:32;103041.78;;;6.04;42.75
45523;BME280;31254;51.680;5.394;2023-02-28T15:56:06;103034.16;;;5.92;43.06
45523;BME280;31254;51.680;5.394;2023-02-28T15:58:35;103035.28;;;6.09;42.14
45523;BME280;31254;51.680;5.394;2023-02-28T16:01:07;103041.78;;;6.04;42.60
45523;BME280;31254;51.680;5.394;2023-02-28T16:03:50;103032.09;;;5.99;42.74
45523;BME280;31254;51.680;5.394;2023-02-28T16:06:24;103045.81;;;5.94;43.23
45523;BME280;31254;51.680;5.394;2023-02-28T16:09:14;103038.91;;;5.87;43.00